地図

経路データ

SID SEASON NUMBER BASIN SUBBASIN NAME ISO_TIME NATURE LAT LON WMO_WIND WMO_PRES WMO_AGENCY TRACK_TYPE DIST2LAND LANDFALL IFLAG USA_AGENCY USA_ATCF_ID USA_LAT USA_LON USA_RECORD USA_STATUS USA_WIND USA_PRES USA_SSHS USA_R34_NE USA_R34_SE USA_R34_SW USA_R34_NW USA_R50_NE USA_R50_SE USA_R50_SW USA_R50_NW USA_R64_NE USA_R64_SE USA_R64_SW USA_R64_NW USA_POCI USA_ROCI USA_RMW USA_EYE TOKYO_LAT TOKYO_LON TOKYO_GRADE TOKYO_WIND TOKYO_PRES TOKYO_R50_DIR TOKYO_R50_LONG TOKYO_R50_SHORT TOKYO_R30_DIR TOKYO_R30_LONG TOKYO_R30_SHORT TOKYO_LAND CMA_LAT CMA_LON CMA_CAT CMA_WIND CMA_PRES HKO_LAT HKO_LON HKO_CAT HKO_WIND HKO_PRES NEWDELHI_LAT NEWDELHI_LON NEWDELHI_GRADE NEWDELHI_WIND NEWDELHI_PRES NEWDELHI_CI NEWDELHI_DP NEWDELHI_POCI REUNION_LAT REUNION_LON REUNION_TYPE REUNION_WIND REUNION_PRES REUNION_TNUM REUNION_CI REUNION_RMW REUNION_R34_NE REUNION_R34_SE REUNION_R34_SW REUNION_R34_NW REUNION_R50_NE REUNION_R50_SE REUNION_R50_SW REUNION_R50_NW REUNION_R64_NE REUNION_R64_SE REUNION_R64_SW REUNION_R64_NW BOM_LAT BOM_LON BOM_TYPE BOM_WIND BOM_PRES BOM_TNUM BOM_CI BOM_RMW BOM_R34_NE BOM_R34_SE BOM_R34_SW BOM_R34_NW BOM_R50_NE BOM_R50_SE BOM_R50_SW BOM_R50_NW BOM_R64_NE BOM_R64_SE BOM_R64_SW BOM_R64_NW BOM_ROCI BOM_POCI BOM_EYE BOM_POS_METHOD BOM_PRES_METHOD NADI_LAT NADI_LON NADI_CAT NADI_WIND NADI_PRES WELLINGTON_LAT WELLINGTON_LON WELLINGTON_WIND WELLINGTON_PRES DS824_LAT DS824_LON DS824_STAGE DS824_WIND DS824_PRES TD9636_LAT TD9636_LON TD9636_STAGE TD9636_WIND TD9636_PRES TD9635_LAT TD9635_LON TD9635_WIND TD9635_PRES TD9635_ROCI NEUMANN_LAT NEUMANN_LON NEUMANN_CLASS NEUMANN_WIND NEUMANN_PRES MLC_LAT MLC_LON MLC_CLASS MLC_WIND MLC_PRES USA_GUST BOM_GUST BOM_GUST_PER REUNION_GUST REUNION_GUST_PER USA_SEAHGT USA_SEARAD_NE USA_SEARAD_SE USA_SEARAD_SW USA_SEARAD_NW STORM_SPEED STORM_DIR
1961213N12134 1961 68 WP MM JUNE 1961-08-01 00:00:00 TS 11.5500 134.000 1008 tokyo main 894 876 _OO___________ -1 11.5000 134.000 2 1008 0 0 0 11.6000 134.000 1 29 1008 6 304
1961213N12134 1961 68 WP MM JUNE 1961-08-01 03:00:00 TS 11.7201 133.745 main 865 844 _PP___________ -1 11.7001 133.738 2 1004 0 0 11.7400 133.753 1 38 1004 6 304
1961213N12134 1961 68 WP MM JUNE 1961-08-01 06:00:00 TS 11.8700 133.510 1000 tokyo main 845 825 OOOO_____O_O__ jtwc_wp WP141961 11.8000 133.600 50 0 11.9000 133.500 2 1000 0 0 0 11.9000 133.500 3 48 1000 11.9000 133.300 TS 40 991 11.8000 133.600 TC 50 11.8000 133.600 50 990 240 6 305
1961213N12134 1961 68 WP MM JUNE 1961-08-01 09:00:00 TS 12.0384 133.286 main 825 805 PPPP_____P_P__ WP141961 11.9450 133.353 50 0 12.0999 133.300 2 999 0 0 12.0925 133.243 3 48 999 12.0875 133.145 TS 45 991 11.9450 133.353 TC 50 11.9450 133.353 51 990 240 5 308
1961213N12134 1961 68 WP MM JUNE 1961-08-01 12:00:00 TS 12.2048 133.067 998 tokyo main 806 787 OOOO_____OOO__ jtwc_wp WP141961 12.1000 133.100 50 0 12.3000 133.100 9 998 0 0 0 12.3000 133.000 3 48 998 12.3000 133.000 STS 50 992 12.1000 133.100 TC 50 12.1000 133.100 2 52 12.1000 133.100 52 991 240 6 309
1961213N12134 1961 68 WP MM JUNE 1961-08-01 15:00:00 TS 12.3879 132.845 main 778 761 PPPP_____PPP__ WP141961 12.2775 132.842 55 0 12.4925 132.857 9 998 0 0 12.4924 132.800 3 48 996 12.5500 132.865 STS 52 992 12.2775 132.842 TC 55 12.3080 132.886 2 54 12.2775 132.842 55 991 240 6 313
1961213N12134 1961 68 WP MM JUNE 1961-08-01 18:00:00 TS 12.6073 132.622 998 tokyo main 761 746 OOOO_____OPO__ jtwc_wp WP141961 12.5000 132.600 60 0 12.7000 132.600 9 998 0 0 0 12.7000 132.600 3 48 995 12.8000 132.700 STS 55 993 12.5000 132.600 TC 60 12.5327 132.667 2 57 12.5000 132.600 58 992 240 6 317
1961213N12134 1961 68 WP MM JUNE 1961-08-01 21:00:00 TS 12.8509 132.399 main 749 731 PPPP_____PPP__ WP141961 12.7700 132.400 60 0 12.9350 132.335 9 996 0 0 12.9275 132.357 3 58 994 12.9925 132.457 STS 55 992 12.7700 132.400 TC 60 12.7911 132.440 2 59 12.7700 132.400 60 991 240 7 321
1961213N12134 1961 68 WP MM JUNE 1961-08-02 00:00:00 TS 13.1429 132.171 995 tokyo main 734 716 OOOO_____OOO__ jtwc_wp WP141961 13.1000 132.200 60 0 13.2000 132.100 9 995 0 0 0 13.2000 132.100 4 68 993 13.2000 132.200 STS 55 991 13.1000 132.200 TC 60 13.1000 132.200 2 62 13.1000 132.200 62 991 240 8 326
1961213N12134 1961 68 WP MM JUNE 1961-08-02 03:00:00 TS 13.4895 131.960 main 719 695 PPPP_____PPP__ WP141961 13.4924 131.972 65 1 13.4774 131.965 9 995 0 0 13.5199 131.872 4 72 993 13.4849 132.022 STS 57 989 13.4924 131.972 TC 65 13.4673 131.942 2 64 13.4924 131.972 65 989 210 9 328
1961213N12134 1961 68 WP MM JUNE 1961-08-02 06:00:00 TS 13.8664 131.709 995 tokyo main 698 677 OOOO_____OPO__ jtwc_wp WP141961 13.9000 131.700 70 1 13.8000 131.800 9 995 0 0 0 13.9000 131.600 4 77 993 13.8000 131.800 STS 60 988 13.9000 131.700 TC 70 13.8647 131.660 2 66 13.9000 131.700 68 988 180 10 323
1961213N12134 1961 68 WP MM JUNE 1961-08-02 09:00:00 TS 14.2525 131.373 main 680 653 PPPP_____PPP__ WP141961 14.2800 131.373 70 1 14.2075 131.488 9 992 0 0 14.3650 131.230 4 77 993 14.1001 131.430 STS 60 987 14.2800 131.373 TC 70 14.2547 131.348 2 68 14.2800 131.373 69 987 150 10 316
1961213N12134 1961 68 WP MM JUNE 1961-08-02 12:00:00 TS 14.6000 130.986 990 tokyo main 653 623 OOOO_____OOO__ jtwc_wp WP141961 14.6000 131.000 70 1 14.6000 131.100 9 990 0 0 0 14.8000 130.800 4 77 993 14.4000 131.000 STS 60 987 14.6000 131.000 TC 70 14.6000 131.000 3 70 14.6000 131.000 70 987 120 10 308
1961213N12134 1961 68 WP MM JUNE 1961-08-02 15:00:00 TS 14.8602 130.583 main 628 597 PPPP_____PPP__ WP141961 14.8224 130.615 70 1 14.8873 130.730 9 992 0 0 15.1100 130.342 4 77 993 14.7226 130.570 STS 60 988 14.8224 130.615 TC 70 14.8343 130.594 3 71 14.8224 130.615 71 987 120 9 300
1961213N12134 1961 68 WP MM JUNE 1961-08-02 18:00:00 TS 15.0604 130.165 995 tokyo main 602 573 OOOO_____OPO__ jtwc_wp WP141961 15.0000 130.200 70 1 15.1000 130.300 9 995 0 0 0 15.3000 129.900 4 77 994 15.0000 130.200 STS 60 989 15.0000 130.200 TC 70 15.0229 130.157 3 72 15.0000 130.200 72 988 120 9 294
1961213N12134 1961 68 WP MM JUNE 1961-08-02 21:00:00 TS 15.2160 129.751 main 573 545 PPPP_____PPP__ WP141961 15.2000 129.750 72 1 15.2352 129.742 9 995 0 0 15.3349 129.535 4 77 994 15.1422 130.015 STS 60 987 15.2000 129.750 TC 72 15.1999 129.716 3 73 15.2000 129.750 73 986 120 9 292
1961213N12134 1961 68 WP MM JUNE 1961-08-03 00:00:00 TS 15.3857 129.343 995 tokyo main 544 530 OOOO_____OOO__ jtwc_wp WP141961 15.4000 129.300 75 1 15.4000 129.200 9 995 0 0 0 15.4000 129.200 4 77 994 15.3000 129.800 STS 60 985 15.4000 129.300 TC 75 15.4000 129.300 4 75 15.4000 129.300 75 985 120 9 298
1961213N12134 1961 68 WP MM JUNE 1961-08-03 03:00:00 TS 15.6302 128.935 main 520 503 PPPP_____PPP__ WP141961 15.5700 128.870 72 1 15.7198 128.812 9 995 0 0 15.6900 128.835 4 72 995 15.6127 129.330 STS 60 988 15.5700 128.870 TC 72 15.6789 128.954 4 74 15.5700 128.870 73 990 150 9 306
1961213N12134 1961 68 WP MM JUNE 1961-08-03 06:00:00 TS 15.9406 128.562 995 tokyo main 503 491 OOOO_____OPO__ jtwc_wp WP141961 15.8000 128.500 70 1 16.1000 128.500 9 995 0 0 0 16.1000 128.500 4 68 997 16.0000 128.800 STS 60 992 15.8000 128.500 TC 70 15.9844 128.635 4 73 15.8000 128.500 72 995 180 10 317
1961213N12134 1961 68 WP MM JUNE 1961-08-03 09:00:00 TS 16.3238 128.264 main 497 488 PPPP_____PPP__ WP141961 16.1774 128.227 70 1 16.4499 128.200 9 995 0 0 16.5648 128.257 4 68 997 16.4223 128.385 STS 60 996 16.1774 128.227 TC 70 16.2977 128.323 4 72 16.1774 128.227 72 996 180 10 324
1961213N12134 1961 68 WP MM JUNE 1961-08-03 12:00:00 TS 16.7143 127.986 995 tokyo main 497 495 OOOO_____OOO__ jtwc_wp WP141961 16.6000 128.000 70 1 16.8000 127.900 9 995 0 0 0 17.0000 128.000 4 68 998 16.8000 128.000 STS 60 1000 16.6000 128.000 TC 70 16.6000 128.000 4 72 16.6000 128.000 72 997 180 9 323
1961213N12134 1961 68 WP MM JUNE 1961-08-03 15:00:00 TS 17.0561 127.682 main 503 495 PPPP_____PPP__ WP141961 16.9873 127.787 70 1 17.1949 127.565 9 995 0 0 17.3101 127.615 4 68 997 17.0374 127.607 STS 60 999 16.9873 127.787 TC 70 16.8888 127.627 4 71 16.9873 127.787 71 996 180 9 314
1961213N12134 1961 68 WP MM JUNE 1961-08-03 18:00:00 TS 17.3229 127.335 995 tokyo main 489 470 OOOO_____OPO__ jtwc_wp WP141961 17.3000 127.500 70 1 17.5000 127.200 9 995 0 0 0 17.5000 127.200 4 68 996 17.2000 127.200 STS 60 999 17.3000 127.500 TC 70 17.1601 127.243 4 71 17.3000 127.500 70 996 180 9 300
1961213N12134 1961 68 WP MM JUNE 1961-08-03 21:00:00 TS 17.4885 126.900 main 470 430 PPPP_____PPP__ WP141961 17.4952 127.022 70 1 17.5950 126.800 9 995 0 0 17.5724 126.842 4 68 995 17.3651 126.728 STS 60 996 17.4952 127.022 TC 70 17.4013 126.862 4 70 17.4952 127.022 70 994 180 9 287
1961213N12134 1961 68 WP MM JUNE 1961-08-04 00:00:00 TS 17.5857 126.457 995 tokyo main 430 388 OOOO_____OOO__ jtwc_wp WP141961 17.6000 126.500 70 1 17.6000 126.400 9 995 0 0 0 17.6000 126.500 4 68 994 17.5000 126.300 STS 60 993 17.6000 126.500 TC 70 17.6000 126.500 4 70 17.6000 126.500 70 993 180 8 282
1961213N12134 1961 68 WP MM JUNE 1961-08-04 03:00:00 TS 17.6589 126.072 main 390 358 PPPP_____PPP__ WP141961 17.6500 126.055 70 1 17.6350 126.012 9 993 0 0 17.6925 126.135 4 72 993 17.5998 126.027 STS 60 992 17.6500 126.055 TC 70 17.7348 126.166 4 69 17.6500 126.055 69 992 150 7 282
1961213N12134 1961 68 WP MM JUNE 1961-08-04 06:00:00 TS 17.7328 125.751 992 tokyo main 358 330 OOOO_____OPO__ jtwc_wp WP141961 17.7000 125.700 70 1 17.7000 125.700 9 992 0 0 0 17.8000 125.800 4 77 993 17.7000 125.800 STS 60 991 17.7000 125.700 TC 70 17.8298 125.854 4 69 17.7000 125.700 68 992 120 6 290
1961213N12134 1961 68 WP MM JUNE 1961-08-04 09:00:00 TS 17.8570 125.509 main 333 317 PPPP_____PPP__ WP141961 17.8348 125.477 70 1 17.8423 125.535 9 992 0 0 17.8999 125.527 4 77 993 17.8425 125.500 STS 60 992 17.8348 125.477 TC 70 17.9099 125.566 4 68 17.8348 125.477 68 992 120 5 302
1961213N12134 1961 68 WP MM JUNE 1961-08-04 12:00:00 TS 18.0000 125.300 992 tokyo main 317 296 OOOO_____OOO__ jtwc_wp WP141961 18.0000 125.300 70 1 18.0000 125.400 9 992 0 0 0 18.0000 125.300 4 77 993 18.0000 125.200 STS 60 994 18.0000 125.300 TC 70 18.0000 125.300 4 68 18.0000 125.300 68 993 120 5 302
1961213N12134 1961 68 WP MM JUNE 1961-08-04 15:00:00 TS 18.1258 125.060 main 296 263 PPPP_____PPP__ WP141961 18.1500 125.050 70 1 18.0925 125.165 9 992 0 0 18.0849 125.107 4 77 993 18.1424 124.942 STS 60 994 18.1500 125.050 TC 70 18.1110 125.057 4 68 18.1500 125.050 68 993 120 5 300
1961213N12134 1961 68 WP MM JUNE 1961-08-04 18:00:00 TS 18.2628 124.819 992 tokyo main 263 242 OOOO_____OPO__ jtwc_wp WP141961 18.3000 124.800 70 1 18.2000 124.900 9 992 0 0 0 18.2000 124.900 4 77 993 18.3000 124.700 STS 60 995 18.3000 124.800 TC 70 18.2397 124.834 4 68 18.3000 124.800 68 993 120 5 303
1961213N12134 1961 68 WP MM JUNE 1961-08-04 21:00:00 TS 18.4162 124.593 main 242 221 PPPP_____PPP__ WP141961 18.4274 124.600 70 1 18.3699 124.665 9 992 0 0 18.3700 124.615 4 77 992 18.4925 124.450 STS 60 993 18.4274 124.600 TC 70 18.3985 124.620 4 68 18.4274 124.600 68 992 120 6 309
1961213N12134 1961 68 WP MM JUNE 1961-08-05 00:00:00 TS 18.6143 124.357 992 tokyo main 222 194 OOOO_____OOO__ jtwc_wp WP141961 18.6000 124.400 70 1 18.6000 124.400 9 992 0 0 0 18.6000 124.300 4 77 992 18.7000 124.200 STS 60 992 18.6000 124.400 TC 70 18.6000 124.400 4 68 18.6000 124.400 68 991 120 7 314
1961213N12134 1961 68 WP MM JUNE 1961-08-05 03:00:00 TS 18.8782 124.095 main 197 176 PPPP_____PPP__ WP141961 18.8775 124.158 70 1 18.8925 124.065 9 992 0 0 18.8849 124.007 4 77 990 18.8849 123.957 STS 60 992 18.8775 124.158 TC 70 18.8527 124.161 4 69 18.8775 124.158 69 988 120 8 318
1961213N12134 1961 68 WP MM JUNE 1961-08-05 06:00:00 TS 19.1782 123.816 992 tokyo main 181 168 OOOO_____OPO__ jtwc_wp WP141961 19.2000 123.900 70 1 19.2000 123.700 9 992 0 0 0 19.2000 123.700 4 77 988 19.1000 123.700 STS 60 992 19.2000 123.900 TC 70 19.1474 123.915 4 70 19.2000 123.900 70 985 120 8 318
1961213N12134 1961 68 WP MM JUNE 1961-08-05 09:00:00 TS 19.4644 123.530 main 176 176 PPPP_____PPP__ WP141961 19.4925 123.650 70 1 19.4275 123.335 9 988 0 0 19.4925 123.350 4 82 984 19.3849 123.415 STS 62 986 19.4925 123.650 TC 70 19.4683 123.661 4 71 19.4925 123.650 71 982 120 8 318
1961213N12134 1961 68 WP MM JUNE 1961-08-05 12:00:00 TS 19.7714 123.243 985 tokyo main 182 182 OOOO_____OOO__ jtwc_wp WP141961 19.8000 123.400 70 1 19.7000 123.000 9 985 0 0 0 19.8000 123.000 5 87 980 19.7000 123.100 T 65 980 19.8000 123.400 TC 70 19.8000 123.400 4 72 19.8000 123.400 72 979 120 9 321
1961213N12134 1961 68 WP MM JUNE 1961-08-05 15:00:00 TS 20.1240 122.960 main 203 200 PPPP_____PPP__ WP141961 20.1499 123.157 75 1 20.1499 122.728 9 982 0 0 20.1500 122.670 5 87 978 19.9926 122.735 T 67 977 20.1499 123.157 TC 75 20.1260 123.116 4 75 20.1499 123.157 75 977 120 9 324
1961213N12134 1961 68 WP MM JUNE 1961-08-05 18:00:00 TS 20.4797 122.690 980 tokyo main 238 198 OOOO_____OPO__ jtwc_wp WP141961 20.5000 122.900 80 1 20.6000 122.500 9 980 0 0 0 20.5000 122.400 5 87 977 20.3000 122.400 T 70 975 20.5000 122.900 TC 80 20.4576 122.828 4 78 20.5000 122.900 78 976 120 8 324
1961213N12134 1961 68 WP MM JUNE 1961-08-05 21:00:00 TS 20.7922 122.432 main 198 161 PPPP_____PPP__ WP141961 20.8075 122.600 82 1 20.8725 122.285 9 977 0 0 20.8074 122.227 5 87 975 20.6574 122.162 T 75 972 20.8075 122.600 TC 82 20.7854 122.550 4 81 20.8075 122.600 81 973 120 8 323
1961213N12134 1961 68 WP MM JUNE 1961-08-06 00:00:00 TS 21.0857 122.200 975 tokyo main 161 126 OOOO_____OOO__ jtwc_wp WP141961 21.1000 122.300 85 2 21.1000 122.100 9 975 0 0 0 21.1000 122.100 5 87 974 21.0000 122.000 T 80 970 21.1000 122.300 TC 85 21.1000 122.300 4 85 21.1000 122.300 85 971 120 7 325
1961213N12134 1961 68 WP MM JUNE 1961-08-06 03:00:00 TS 21.3831 121.981 main 126 95 PPPP_____PPP__ WP141961 21.4075 122.020 90 2 21.4000 121.928 9 972 0 0 21.4075 121.935 5 92 968 21.2500 121.870 T 85 965 21.4075 122.020 TC 90 21.4014 122.072 4 87 21.4075 122.020 90 967 120 7 328
1961213N12134 1961 68 WP MM JUNE 1961-08-06 06:00:00 TS 21.6696 121.811 970 tokyo main 95 82 OOOO_____OPO__ jtwc_wp WP141961 21.7000 121.800 95 2 21.7000 121.800 9 970 0 0 0 21.7000 121.800 5 97 963 21.5000 121.800 ST 90 960 21.7000 121.800 TC 95 21.6874 121.875 4 90 21.7000 121.800 95 963 120 6 336
1961213N12134 1961 68 WP MM JUNE 1961-08-06 09:00:00 TS 21.9449 121.711 main 82 82 PPPP_____PPP__ WP141961 21.9574 121.670 95 2 21.9650 121.735 9 965 0 0 21.9725 121.735 5 97 961 21.8500 121.785 ST 85 960 21.9574 121.670 TC 95 21.9546 121.716 4 92 21.9574 121.670 95 960 120 6 345
1961213N12134 1961 68 WP MM JUNE 1961-08-06 12:00:00 TS 22.2000 121.657 960 tokyo main 82 65 OOOO_____OOO__ jtwc_wp WP141961 22.2000 121.600 95 2 22.2000 121.700 9 960 0 0 0 22.2000 121.700 5 97 960 22.2000 121.800 T 80 960 22.2000 121.600 TC 95 22.2000 121.600 4 95 22.2000 121.600 95 958 120 5 349
1961213N12134 1961 68 WP MM JUNE 1961-08-06 15:00:00 TS 22.4350 121.606 main 65 52 PPPP_____PPP__ WP141961 22.4650 121.535 87 2 22.4150 121.643 9 960 0 0 22.3500 121.650 5 92 965 22.4800 121.807 T 72 960 22.4650 121.535 TC 87 22.4052 121.539 4 86 22.4650 121.535 88 962 120 5 349
1961213N12134 1961 68 WP MM JUNE 1961-08-06 18:00:00 TS 22.6418 121.574 960 tokyo main 52 37 OOOO_____OPO__ jtwc_wp WP141961 22.7000 121.500 80 1 22.6000 121.600 9 960 0 0 0 22.5000 121.600 5 87 970 22.7000 121.800 T 65 960 22.7000 121.500 TC 80 22.5923 121.519 4 78 22.7000 121.500 82 966 120 4 354
1961213N12134 1961 68 WP MM JUNE 1961-08-06 21:00:00 TS 22.8044 121.562 main 37 15 PPPP_____PPP__ WP141961 22.8500 121.500 70 1 22.7125 121.607 9 965 0 0 22.7350 121.557 5 77 975 22.8500 121.757 T 55 965 22.8500 121.500 TC 70 22.7833 121.515 4 70 22.8500 121.500 72 970 120 3 352
1961213N12134 1961 68 WP MM JUNE 1961-08-07 00:00:00 TS 22.9857 121.543 970 tokyo main 15 10 OOOO_____OOO__ jtwc_wp WP141961 23.0000 121.500 60 0 22.9000 121.600 9 970 0 0 0 23.0000 121.500 4 68 980 23.0000 121.700 TS 45 970 23.0000 121.500 TC 60 23.0000 121.500 2 62 23.0000 121.500 62 974 120 4 353
1961213N12134 1961 68 WP MM JUNE 1961-08-07 03:00:00 TS 23.2454 121.504 main 10 0 PPPP_____PPP__ WP141961 23.2200 121.465 50 0 23.3274 121.537 9 975 0 0 23.2500 121.408 4 63 982 23.1974 121.680 TS 40 972 23.2200 121.465 TC 50 23.2828 121.508 2 52 23.2200 121.465 50 978 120 6 349
1961213N12134 1961 68 WP MM JUNE 1961-08-07 06:00:00 TS 23.5559 121.427 980 tokyo main 0 0 OOOO_____OPO__ jtwc_wp WP141961 23.5000 121.400 40 0 23.8000 121.400 9 980 0 0 0 23.5000 121.300 3 58 985 23.5000 121.600 TS 35 975 23.5000 121.400 TC 40 23.5914 121.491 2 43 23.5000 121.400 38 983 120 7 348
1961213N12134 1961 68 WP MM JUNE 1961-08-07 09:00:00 TS 23.9025 121.346 main 0 0 PPPP_____PPP__ WP141961 23.8421 121.382 32 -1 24.1523 121.203 9 982 0 0 23.7497 121.267 3 53 987 23.9849 121.403 TS 32 980 23.8421 121.382 TC 32 23.9043 121.404 2 34 23.8421 121.382 31 987 120 7 338
1961213N12134 1961 68 WP MM JUNE 1961-08-07 12:00:00 TS 24.2429 121.129 985 tokyo main 0 0 OOOO_____OOO__ jtwc_wp WP141961 24.2000 121.200 25 -1 24.4000 120.900 9 985 0 0 0 24.0000 121.100 3 48 990 24.5000 121.100 TD 30 985 24.2000 121.200 TC 25 24.2000 121.200 1 25 24.2000 121.200 25 991 120 9 315
1961213N12134 1961 68 WP MM JUNE 1961-08-07 15:00:00 TS 24.5363 120.651 main 0 0 PPPP_____PPP__ WP141961 24.5307 120.646 27 -1 24.5376 120.480 9 990 0 0 24.2651 120.633 3 43 992 24.8950 120.730 TD 30 990 24.5307 120.646 TC 27 24.4645 120.775 1 25 24.5307 120.646 27 995 120 11 299
1961213N12134 1961 68 WP MM JUNE 1961-08-07 18:00:00 TS 24.7722 120.077 995 tokyo main 64 44 OOOO_____OPO__ jtwc_wp WP141961 24.8000 120.000 30 -1 24.6000 120.000 9 995 0 0 0 24.5000 120.000 2 38 995 25.2000 120.300 TD 30 995 24.8000 120.000 TC 30 24.7051 120.239 1 26 24.8000 120.000 30 1000 120 10 293
1961213N12134 1961 68 WP MM JUNE 1961-08-07 21:00:00 TS 24.9440 119.601 main 44 0 PPPP_____PPP__ WP141961 24.9722 119.555 30 -1 24.6565 119.617 9 997 0 0 24.6722 119.380 2 33 997 25.4449 119.865 TD 27 997 24.9722 119.555 TC 30 24.9177 119.684 1 27 24.9722 119.555 29 1001 120 9 290
1961213N12134 1961 68 WP MM JUNE 1961-08-08 00:00:00 TS 25.0760 119.152 1000 tokyo main 0 0 OOOO_____OOO__ jtwc_wp WP141961 25.1000 119.200 30 -1 24.7000 119.100 9 1000 0 0 0 24.8000 118.700 1 29 1000 25.6000 119.400 TD 25 1000 25.1000 119.200 TC 30 25.1000 119.200 1 28 25.1000 119.200 28 1002 120 8 289
1961213N12134 1961 68 WP MM JUNE 1961-08-08 03:00:00 TS 25.2161 118.728 main 0 0 PPPP_____PPP__ WP141961 25.2575 118.855 25 -1 24.7495 118.290 9 1000 0 0 24.9058 117.965 1 23 1000 25.6729 118.907 TD 25 1000 25.2575 118.855 TC 25 25.2520 118.857 1 23 25.2575 118.855 23 1003 90 7 292
1961213N12134 1961 68 WP MM JUNE 1961-08-08 06:00:00 TS 25.3495 118.414 1000 tokyo main 0 0 OOOO_____OPO__ jtwc_wp WP141961 25.4000 118.600 20 -1 24.8000 117.300 2 1000 0 0 0 25.0000 117.200 0 17 1000 25.7000 118.400 TD 25 1000 25.4000 118.600 TC 20 25.3807 118.636 1 19 25.4000 118.600 18 1005 60 4 321
1961213N12134 1961 68 WP MM JUNE 1961-08-08 09:00:00 TS 25.5060 118.473 main 0 0 P________PPP__ WP141961 25.5100 118.465 15 -1 2 0 0 0 TD 25.5100 118.465 TC 15 25.4941 118.498 1 14 25.5100 118.465 14 1006 60 3 0
1961213N12134 1961 68 WP MM JUNE 1961-08-08 12:00:00 TS 25.6000 118.400 main 0 O________OOO__ jtwc_wp WP141961 25.6000 118.400 10 -1 25.6000 118.400 TC 10 25.6000 118.400 1 10 25.6000 118.400 10 1007 60 2 322

デジタル台風データ・検索

IBTrACS Databaseについて

本データベースは、米国NOAAが公開する1842年以降の世界の熱帯低気圧のベストトラックデータアーカイブInternational Best Track Archive for Climate Stewardship (IBTrACS)を、ウェブで閲覧しやすい形式に変換したものです。

最終更新日:2021-11-26